Alamo, Nevada Weather observations

Data are for observation ending at time listed.
 Day   Time    Ave.   Ave.  Ave.  Vector   Max.   Stn.    Total    Solar   Ave.  
  of    of     Air    Rel.  Wind   Wind    Wind   Baro.  Precip.   Rad.    Soil  
Year   Day     Temp.  Hum.  Speed  Dir.    Gust   Pres.                    Temp. 
2024   (PST)    F      %     mph   deg.    mph     mb.     in.     W/m2     F   
------------------------------------------------------------------------------
 149    1:20   55.4    40    0.5    36      2.0   907.2    0.00       0    69.2
 149    1:30   55.8    38    0.4    35      1.5   907.5    0.00       0    69.0
 149    1:40   55.8    38    1.0   310      1.8   907.6    0.00       0    68.7
 149    1:50   55.2    40    1.2   296      2.0   907.6    0.00       0    68.5
 149    2:00   54.6    41    0.2   303      1.2   907.5    0.00       0    68.3
 149    2:10   53.8    42    0.0    15      0.4   907.2    0.00       0    68.1
 149    2:20   53.0    45    0.0     0      0.0   906.9    0.00       0    67.9
 149    2:30   52.6    46    0.0     0      0.0   906.3    0.00       0    67.7
 149    2:40   52.1    47    0.0     0      0.0   906.3    0.00       0    67.5
 149    2:50   51.8    46    0.1    25      1.2   906.3    0.00       0    67.2
 149    3:00   52.0    44    0.8    27      1.5   906.3    0.00       0    67.0
 149    3:10   51.8    45    0.7     7      1.4   906.3    0.00       0    66.8
 149    3:20   51.6    45    1.3   338      2.3   906.3    0.00       0    66.5
 149    3:30   50.9    48    0.8    19      1.5   906.3    0.00       0    66.3
 149    3:40   50.5    50    0.3   302      1.5   906.3    0.00       0    66.1
 149    3:50   50.4    50    0.2   325      1.1   906.3    0.00       0    65.9
 149    4:00   50.1    52    0.0     0      0.0   906.4    0.00       0    65.7
 149    4:10   49.6    53    0.0   351      0.7   906.5    0.00       0    65.5
 149    4:20   49.5    53    0.0     0      0.0   906.6    0.00       0    65.3
 149    4:30   49.4    52    0.0     0      0.0   906.9    0.00       2    65.1
 149    4:40   49.5    52    0.1    50      0.7   907.1    0.00       7    64.9
 149    4:50   49.9    49    0.7   354      1.2   907.1    0.00      10    64.7
 149    5:00   50.3    51    0.0   347      0.4   907.2    0.00      14    64.5
 149    5:10   50.5    50    0.2    15      0.8   907.2    0.00      66    64.4
 149    5:20   52.6    44    0.6    10      1.2   907.3    0.00      98    64.3
 149    5:30   54.5    44    0.6    22      1.4   907.3    0.00      81    64.2
 149    5:40   56.0    44    1.0   336      2.0   907.4    0.00      66    64.1
 149    5:50   57.1    36    1.4   360      2.3   907.4    0.00      66    64.2
 149    6:00   56.8    38    1.1    25      1.7   907.5    0.00      55    64.4
 149    6:10   57.5    39    1.1    22      2.2   907.6    0.00      40    64.9
 149    6:20   58.7    38    1.8    12      3.9   907.5    0.00      67    65.4
 149    6:30   60.4    33    2.2     4      3.9   907.5    0.00      42    66.1
 149    6:40   61.0    32    1.7    18      3.0   907.6    0.00      43    66.6
 149    6:50   63.0    30    1.1     8      2.4   907.6    0.00      44    66.9
 149    7:00   64.6    28    1.1    23      2.7   907.6    0.00      46    67.0
 149    7:10   66.4    25    1.7    16      3.4   907.7    0.00      44    67.1
 149    7:20   67.7    25    1.7    16      4.1   907.6    0.00      41    67.2
 149    7:30   69.6    24    1.2   340      4.1   907.7    0.00      41    67.2
 149    7:40   71.2    22    2.4   348      5.4   907.6    0.00      42    67.3
 149    7:50   72.1    21    1.9    19      4.1   907.5    0.00      44    67.4
 149    8:00   72.6    20    1.6    22      3.9   907.5    0.00      49    67.5
 149    8:10   73.8    18    1.6     6      3.6   907.3    0.00      46    67.6
 149    8:20   74.8    18    1.7    24      3.1   907.3    0.00      46    67.9
 149    8:30   76.0    16    1.5     2      3.6   907.1    0.00      59    68.1
 149    8:40   77.4    17    0.6    35      2.6   907.1    0.00      48    68.3
 149    8:50   78.2    16    0.6   197      2.6   907.0    0.00      65    68.5
 149    9:00   78.7    17    1.3   216      4.6   907.0    0.00      48    68.8
 149    9:10   79.7    16    1.4   188      5.1   907.0    0.00      99    69.0
 149    9:20   80.9    16    0.9   168      2.8   907.0    0.00      52    69.2
 149    9:30   81.7    15    1.1   154      4.4   906.9    0.00      50    69.3
 149    9:40   81.9    16    1.5   181      6.5   906.9    0.00      53    69.5
 149    9:50   82.3    16    1.2   175      4.0   906.8    0.00      70    69.7
 149   10:00   82.7    16    1.5   177      6.4   906.7    0.00      63    69.8
 149   10:10   83.3    15    1.3   152      5.2   906.7    0.00      61    70.0
 149   10:20   84.1    14    1.3   157      4.3   906.7    0.00      53    70.2
 149   10:30   84.5    13    1.4   154      4.2   906.5    0.00      54    70.4
 149   10:40   84.6    13    1.7   146      4.5   906.5    0.00      54    70.6
 149   10:50   84.8    12    1.4   163      4.3   906.3    0.00      61    70.9
 149   11:00   85.7    14    1.2   178      4.7   906.2    0.00     201    71.1
 149   11:10   85.9    12    1.4   169      5.6   906.2    0.00      92    71.3
 149   11:20   85.9    12    1.0   130      4.5   906.1    0.00     208    71.6
 149   11:30   86.1    12    1.6   155      5.6   905.9    0.00    1078    71.9
 149   11:40   87.0    12    1.7   172      7.7   905.9    0.00    1195    72.2
 149   11:50   87.1    12    1.5   155      5.3   906.0    0.00    1197    72.5
 149   12:00   87.7    12    1.4   170      5.3   906.4    0.00    1202    73.0
 149   12:10   87.6    13    1.7   168      5.1   905.8    0.00    1205    74.0
 149   12:20   88.2    12    1.5   168      4.5   905.9    0.00    1204    75.8
 149   12:30   87.2    12    1.4   155      7.7   906.5    0.00    1204    78.0
 149   12:40   87.4    13    1.3   173      8.0   906.3    0.00    1195    80.1
 149   12:50   88.4    12    1.8   187      5.9   906.0    0.00    1185    82.0
 149   13:00   89.9    13    1.2   178      6.1   905.8    0.00    1174    84.1
 149   13:10   89.4    11    1.2   147      3.7   906.0    0.00    1165    86.1
 149   13:20   89.7    11    1.3   130      6.0   905.1    0.00    1151    88.0
 149   13:30   89.9    12    1.8   162      5.4   904.7    0.00    1132    89.7
 149   13:40   89.8    11    1.5   166      5.3   904.9    0.00    1109    91.1
 149   13:50   90.3    12    1.9   170      5.8   904.5    0.00    1089    92.3
 149   14:00   90.3    12    1.5   164      5.0   903.7    0.00    1067    93.4
 149   14:10   90.2    11    1.5   163      6.0   904.2    0.00    1043    94.4
 149   14:20   90.3    11    1.4   148      6.8   903.9    0.00    1019    95.2
 149   14:30   90.7    12    1.4   165      5.2   904.2    0.00     993    95.8
 149   14:40   91.0    11    1.1   164      6.4   903.9    0.00     962    96.0
 149   14:50   91.6    11    1.1   158      3.9   903.7    0.00     939    95.5
 149   15:00   90.9    10    1.1   142      4.2   903.5    0.00     905    94.9
 149   15:10   90.2    10    1.7   146      5.4   903.6    0.00     718    94.2
 149   15:20   90.2    10    1.7   162      5.5   904.0    0.00     846    93.4
 149   15:30   90.7    10    1.2   158      4.5   903.2    0.00     814    92.7
 149   15:40   90.8    10    1.4   151      5.7   903.3    0.00     722    92.1
 149   15:50   89.8    10    1.2   136      3.1   903.3    0.00     728    91.5
 149   16:00   90.3    10    1.7   179      4.8   903.2    0.00     691    91.0
 149   16:10   90.2    10    1.2   167      4.9   903.1    0.00     652    90.4
 149   16:20   90.2    10    1.8   180      6.6   903.2    0.00     610    89.9
 149   16:30   90.1    10    1.3   179      5.2   903.0    0.00     572    89.3
 149   16:40   90.2    10    1.9   212      5.1   902.8    0.00     528    88.8
 149   16:50   90.0    10    2.7   208      6.8   902.6    0.00     489    88.2
 149   17:00   89.9    10    3.6   216      8.8   902.3    0.00     448    87.7
 149   17:10   89.9    10    2.9   193      8.0   902.3    0.00     405    87.2
 149   17:20   89.8    11    1.7   180      4.1   902.3    0.00     363    86.8
 149   17:30   89.1    12    1.2   184      3.4   902.3    0.00     323    86.3
 149   17:40   88.8    11    2.6   203      5.8   902.3    0.00     284    85.9
 149   17:50   88.6    10    2.8   201      7.3   902.4    0.00     245    85.5
 149   18:00   87.9    12    0.6   184      3.6   902.4    0.00     207    85.1
 149   18:10   85.9    13    1.1   172      2.4   902.3    0.00     169    84.7
 149   18:20   84.7    15    0.3   182      1.5   902.3    0.00     125    84.3
 149   18:30   83.0    17    0.1   173      1.2   902.4    0.00      81    83.9
 149   18:40   83.7    10    3.4   219      7.4   902.5    0.00      14    83.6
 149   18:50   84.7     9    3.9   222     10.0   902.5    0.00       7    83.2
 149   19:00   84.6     8    3.7   224     10.1   902.6    0.00       5    82.8
 149   19:10   83.9     8    3.6   224      7.4   902.6    0.00       0    82.4
 149   19:20   83.9     8    4.2   223      7.5   902.8    0.00       0    82.0
 149   19:30   83.3     8    3.0   223      6.1   902.9    0.00       0    81.7
 149   19:40   82.9     8    2.2   210      6.6   903.0    0.00       0    81.3
 149   19:50   82.7     9    2.3   207      8.4   903.2    0.00       0    81.0
 149   20:00   81.3    10    0.6   186      2.3   903.4    0.00       0    80.6
 149   20:10   78.3    12    0.0    55      0.6   903.5    0.00       0    80.3
 149   20:20   77.1    12    0.0    94      0.8   903.6    0.00       0    79.9
 149   20:30   76.3    12    0.0     0      0.0   903.6    0.00       0    79.6
 149   20:40   75.5    12    0.0   220      0.4   903.7    0.00       0    79.1
 149   20:50   75.1    13    0.1   169      0.9   903.9    0.00       0    78.8
 149   21:00   75.6    12    0.0     0      0.0   903.9    0.00       0    78.4
 149   21:10   73.7    14    0.4   200      1.8   904.0    0.00       0    78.1
 149   21:20   71.9    16    0.1   204      1.5   904.0    0.00       0    77.7
 149   21:30   71.0    17    0.1   129      1.1   904.0    0.00       0    77.4
 149   21:40   70.6    18    0.2   208      1.8   904.0    0.00       0    77.0
 149   21:50   70.1    18    0.5   179      3.1   904.0    0.00       0    76.7
 149   22:00   70.6    18    0.5   227      2.7   904.0    0.00       0    76.4
 149   22:10   70.1    18    0.4   199      2.1   904.0    0.00       0    76.1
 149   22:20   69.9    17    0.6   195      3.3   903.8    0.00       0    75.8
 149   22:30   69.8    17    0.3   195      2.9   903.8    0.00       0    75.5
 149   22:40   68.4    19    0.4   190      3.1   903.8    0.00       0    75.2
 149   22:50   66.9    21    0.3   181      2.4   903.8    0.00       0    74.9
 149   23:00   65.3    24    0.6   197      2.5   903.9    0.00       0    74.6
 149   23:10   64.9    23    0.5   206      2.1   904.2    0.00       0    74.4
 149   23:20   65.8    21    0.2   164      1.1   904.5    0.00       0    74.1
 149   23:30   65.7    22    0.7   214      2.1   904.6    0.00       0    73.8
 149   23:40   64.6    23    0.1   272      1.9   904.2    0.00       0    73.5
 149   23:50   63.9    24    0.5    13      1.6   904.0    0.00       0    73.3
 150    0:00   63.0    26    1.8   344      3.7   904.1    0.00       0    73.0
 150    0:10   62.5    25    0.9   325      3.7   904.3    0.00       0    72.7
 150    0:20   61.8    26    0.7     4      1.8   904.1    0.00       0    72.4
 150    0:30   60.9    27    0.7    32      2.7   904.0    0.00       0    72.2
 150    0:40   60.5    25    1.4    67      3.1   903.8    0.00       0    71.9
 150    0:50   60.5    27    1.4   334      3.1   903.9    0.00       0    71.7
 150    1:00   60.4    25    1.0    46      3.1   904.1    0.00       0    71.4
 150    1:10   60.0    25    1.7     8      3.9   904.2    0.00       0    71.2

Return to Alamo, Nevada graphs page.


Western Regional Climate Center,wrcc@dri.edu